Time;durP1;ratioP1;P1;durP2;ratioP2;P2;SDS_P1;SDS_P2;PMS_P1;PMS_P2;Temp;Humidity;BMP_temperature;BMP_pressure;BME280_temperature;BME280_humidity;BME280_pressure;Samples;Min_cycle;Max_cycle;Signal;HPM_P1;HPM_P2
2022/04/05 00:01:27;;;;;;;1.53;0.43;;;4.70;99.90;;;;;;5074713;28;20469;-82
2022/04/05 00:03:54;;;;;;;0.40;0.30;;;4.60;99.90;;;;;;5074583;28;20752;-82
2022/04/05 00:06:21;;;;;;;0.30;0.27;;;4.60;99.90;;;;;;5074774;28;20814;-82
2022/04/05 00:08:47;;;;;;;1.60;0.40;;;4.70;99.90;;;;;;5074264;28;20980;-82
2022/04/05 00:11:17;;;;;;;0.30;0.20;;;4.70;99.90;;;;;;5074187;28;20992;-82
2022/04/05 00:13:43;;;;;;;0.40;0.40;;;4.70;99.90;;;;;;5074416;28;20445;-82
2022/04/05 00:16:10;;;;;;;0.30;0.30;;;4.70;99.90;;;;;;5074126;28;20829;-82
2022/04/05 00:18:38;;;;;;;0.40;0.40;;;4.70;99.90;;;;;;5074531;28;20444;-82
2022/04/05 00:21:05;;;;;;;0.83;0.80;;;4.70;99.90;;;;;;5074282;28;20810;-82
2022/04/05 00:23:32;;;;;;;1.23;0.50;;;4.70;99.90;;;;;;5073899;28;20488;-82
2022/04/05 00:25:59;;;;;;;0.73;0.63;;;4.70;99.90;;;;;;5074519;28;20459;-82
2022/04/05 00:28:27;;;;;;;0.60;0.60;;;4.70;99.90;;;;;;5074335;28;20476;-82
2022/04/05 00:30:54;;;;;;;0.83;0.83;;;4.70;99.90;;;;;;5073897;28;21086;-82
2022/04/05 00:33:21;;;;;;;0.30;0.30;;;4.60;99.90;;;;;;5073923;28;20449;-82
2022/04/05 00:35:48;;;;;;;1.93;0.30;;;4.60;99.90;;;;;;5073895;28;20453;-82
2022/04/05 00:38:14;;;;;;;0.60;0.47;;;4.60;99.90;;;;;;5074016;28;20467;-82
2022/04/05 00:40:41;;;;;;;0.33;0.30;;;4.60;99.90;;;;;;5074053;28;20472;-82
2022/04/05 00:43:08;;;;;;;0.30;0.30;;;4.60;99.90;;;;;;5073710;28;20815;-82
2022/04/05 00:45:36;;;;;;;0.70;0.70;;;4.60;99.90;;;;;;5074251;28;20452;-82
2022/04/05 00:48:04;;;;;;;0.60;0.60;;;4.60;99.90;;;;;;5073384;28;20492;-82
2022/04/05 00:50:35;;;;;;;0.50;0.30;;;4.70;99.90;;;;;;5073890;28;20563;-82
2022/04/05 00:53:04;;;;;;;0.30;0.27;;;4.60;99.90;;;;;;5073968;28;20429;-82
2022/04/05 00:55:32;;;;;;;0.30;0.30;;;4.60;99.90;;;;;;5073764;28;20453;-82
2022/04/05 00:58:02;;;;;;;0.30;0.30;;;4.70;99.90;;;;;;5073782;28;20816;-82
2022/04/05 01:00:29;;;;;;;0.40;0.30;;;4.80;99.90;;;;;;5073614;28;20949;-82
2022/04/05 01:02:58;;;;;;;0.50;0.50;;;4.80;99.90;;;;;;5073620;28;20445;-80
2022/04/05 01:05:27;;;;;;;0.40;0.40;;;4.70;99.90;;;;;;5072860;28;20448;-82
2022/04/05 01:07:56;;;;;;;0.40;0.30;;;4.70;99.90;;;;;;5073267;28;20484;-81
2022/04/05 01:10:23;;;;;;;0.30;0.20;;;4.60;99.90;;;;;;5073357;28;20468;-81
2022/04/05 01:12:50;;;;;;;0.30;0.20;;;4.70;99.90;;;;;;5073700;28;20452;-81
2022/04/05 01:15:16;;;;;;;0.77;0.77;;;4.70;99.90;;;;;;5073560;28;20502;-81
2022/04/05 01:17:43;;;;;;;0.40;0.40;;;4.70;99.90;;;;;;5073683;28;20452;-81
2022/04/05 01:20:12;;;;;;;0.30;0.30;;;4.70;99.90;;;;;;5073342;28;20473;-81
2022/04/05 01:22:49;;;;;;;0.30;0.30;;;4.80;99.90;;;;;;5072973;28;20473;-81
2022/04/05 01:25:18;;;;;;;0.30;0.30;;;4.80;99.90;;;;;;5073504;28;20432;-81
2022/04/05 01:27:47;;;;;;;0.40;0.40;;;4.80;99.90;;;;;;5073419;28;21098;-81
2022/04/05 01:30:14;;;;;;;0.30;0.30;;;4.80;99.90;;;;;;5073380;28;20476;-82
2022/04/05 01:32:41;;;;;;;0.83;0.83;;;4.70;99.90;;;;;;5073347;28;20452;-82
2022/04/05 01:35:09;;;;;;;0.40;0.40;;;4.70;99.90;;;;;;5073414;28;20453;-82
2022/04/05 01:37:36;;;;;;;0.40;0.30;;;4.70;99.90;;;;;;5073317;28;20452;-78
2022/04/05 01:40:04;;;;;;;0.30;0.20;;;4.70;99.90;;;;;;5073278;28;20473;-78
2022/04/05 01:42:33;;;;;;;0.40;0.40;;;4.70;99.90;;;;;;5086785;28;20496;-81
2022/04/05 01:45:00;;;;;;;0.30;0.30;;;4.70;99.90;;;;;;5080921;28;20444;-82
2022/04/05 01:47:27;;;;;;;0.60;0.60;;;4.70;99.90;;;;;;5073518;28;20480;-82
2022/04/05 01:49:54;;;;;;;0.40;0.40;;;4.80;99.90;;;;;;5072826;28;20979;-78
2022/04/05 01:52:21;;;;;;;0.40;0.40;;;4.70;99.90;;;;;;5073182;28;20448;-81
2022/04/05 01:54:48;;;;;;;0.53;0.50;;;4.70;99.90;;;;;;5072884;28;20959;-81
2022/04/05 01:57:15;;;;;;;0.67;0.67;;;4.70;99.90;;;;;;5072716;28;20974;-81
2022/04/05 01:59:43;;;;;;;0.30;0.30;;;4.70;99.90;;;;;;5072801;28;20484;-78
2022/04/05 02:02:11;;;;;;;0.30;0.30;;;4.70;99.90;;;;;;5072922;28;20441;-78
2022/04/05 02:04:39;;;;;;;0.30;0.30;;;4.70;99.90;;;;;;5072789;28;20954;-78
2022/04/05 02:07:10;;;;;;;0.30;0.30;;;4.80;99.90;;;;;;5072725;28;20963;-78
2022/04/05 02:09:38;;;;;;;0.30;0.30;;;4.70;99.90;;;;;;5073416;28;20460;-78
2022/04/05 02:12:06;;;;;;;0.70;0.37;;;4.70;99.90;;;;;;5073601;28;20441;-79
2022/04/05 02:14:33;;;;;;;0.30;0.30;;;4.60;99.90;;;;;;5073989;28;20544;-78
2022/04/05 02:17:01;;;;;;;0.87;0.87;;;4.60;99.90;;;;;;5073097;28;20825;-78
2022/04/05 02:19:28;;;;;;;0.60;0.60;;;4.60;99.90;;;;;;5076759;28;20484;-78
2022/04/05 02:21:55;;;;;;;0.97;0.47;;;4.60;99.90;;;;;;5076447;28;20431;-79
2022/04/05 02:24:22;;;;;;;0.87;0.50;;;4.60;99.90;;;;;;5076499;28;20406;-78
2022/04/05 02:26:49;;;;;;;1.47;0.47;;;4.60;99.90;;;;;;5076356;28;20455;-78
2022/04/05 02:29:16;;;;;;;0.40;0.40;;;4.60;99.90;;;;;;5076480;28;20472;-78
2022/04/05 02:31:42;;;;;;;0.33;0.33;;;4.60;99.90;;;;;;5076576;28;20449;-78
2022/04/05 02:34:11;;;;;;;0.60;0.60;;;4.60;99.90;;;;;;5076512;28;20519;-77
2022/04/05 02:36:37;;;;;;;0.30;0.30;;;4.60;99.90;;;;;;5076496;28;20459;-78
2022/04/05 02:39:05;;;;;;;0.60;0.37;;;4.60;99.90;;;;;;5076078;28;20875;-78
2022/04/05 02:41:32;;;;;;;0.70;0.70;;;4.70;99.90;;;;;;5076104;28;20453;-78
2022/04/05 02:43:59;;;;;;;0.60;0.60;;;4.70;99.90;;;;;;5077012;28;20941;-82
2022/04/05 02:46:26;;;;;;;0.80;0.40;;;4.80;99.90;;;;;;5076317;28;20459;-82
2022/04/05 02:48:54;;;;;;;0.90;0.57;;;4.80;99.90;;;;;;5076183;28;20485;-82
2022/04/05 02:51:23;;;;;;;0.30;0.20;;;4.80;99.90;;;;;;5076370;28;20559;-81
2022/04/05 02:53:50;;;;;;;0.50;0.40;;;4.70;99.90;;;;;;5075797;28;20436;-81
2022/04/05 02:56:17;;;;;;;0.40;0.30;;;4.70;99.90;;;;;;5076448;28;20453;-82
2022/04/05 02:58:47;;;;;;;0.30;0.30;;;4.70;99.90;;;;;;5076354;28;20447;-82
2022/04/05 03:01:15;;;;;;;0.37;0.30;;;4.70;99.90;;;;;;5076201;28;20468;-78
2022/04/05 03:03:42;;;;;;;0.30;0.30;;;4.80;99.90;;;;;;5076037;28;20483;-78
2022/04/05 03:06:10;;;;;;;0.40;0.40;;;4.80;99.90;;;;;;5076128;28;20510;-78
2022/04/05 03:08:38;;;;;;;0.50;0.50;;;4.70;99.90;;;;;;5075859;28;20576;-77
2022/04/05 03:11:04;;;;;;;0.50;0.50;;;4.70;99.90;;;;;;5075959;28;20469;-77
2022/04/05 03:13:31;;;;;;;0.43;0.43;;;4.80;99.90;;;;;;5076428;28;20433;-78
2022/04/05 03:15:58;;;;;;;2.00;0.83;;;4.80;99.90;;;;;;5075498;28;20449;-78
2022/04/05 03:18:25;;;;;;;0.90;0.90;;;4.70;99.90;;;;;;5075972;28;20445;-78
2022/04/05 03:20:52;;;;;;;0.30;0.20;;;4.70;99.90;;;;;;5075666;28;20470;-78
2022/04/05 03:23:20;;;;;;;1.27;0.83;;;4.70;99.90;;;;;;5075292;28;20480;-78
2022/04/05 03:25:48;;;;;;;0.30;0.30;;;4.70;99.90;;;;;;5075337;28;20981;-78
2022/04/05 03:28:15;;;;;;;0.30;0.20;;;4.70;99.90;;;;;;5075399;28;20485;-78
2022/04/05 03:30:42;;;;;;;1.23;0.50;;;4.80;99.90;;;;;;5074858;28;20465;-78
2022/04/05 03:33:09;;;;;;;0.50;0.50;;;4.90;99.90;;;;;;5075479;28;20445;-78
2022/04/05 03:35:36;;;;;;;0.60;0.60;;;4.80;99.90;;;;;;5075346;28;20444;-78
2022/04/05 03:38:03;;;;;;;0.77;0.70;;;4.80;99.90;;;;;;5075079;28;20452;-78
2022/04/05 03:40:31;;;;;;;0.30;0.30;;;4.80;99.90;;;;;;5075355;28;20453;-78
2022/04/05 03:42:59;;;;;;;2.20;0.73;;;4.70;99.90;;;;;;5075019;28;20944;-78
2022/04/05 03:45:27;;;;;;;0.30;0.30;;;4.70;99.90;;;;;;5075186;28;20452;-78
2022/04/05 03:47:54;;;;;;;0.50;0.43;;;4.80;99.90;;;;;;5075073;28;20559;-78
2022/04/05 03:50:20;;;;;;;0.40;0.40;;;4.80;99.90;;;;;;5075110;28;20464;-78
2022/04/05 03:52:47;;;;;;;0.30;0.20;;;4.80;99.90;;;;;;5075126;28;20519;-78
2022/04/05 03:55:14;;;;;;;0.30;0.30;;;4.80;99.90;;;;;;5075473;28;20928;-79
2022/04/05 03:57:41;;;;;;;0.30;0.30;;;4.80;99.90;;;;;;5074756;28;20971;-78
2022/04/05 04:00:10;;;;;;;0.40;0.40;;;4.90;99.90;;;;;;5074801;28;20980;-79
2022/04/05 04:02:37;;;;;;;0.30;0.30;;;4.90;99.90;;;;;;5074919;28;20449;-79
2022/04/05 04:05:04;;;;;;;0.30;0.30;;;4.90;99.90;;;;;;5074545;28;20448;-78
2022/04/05 04:07:31;;;;;;;0.40;0.30;;;4.90;99.90;;;;;;5074830;28;20806;-78
2022/04/05 04:10:03;;;;;;;0.30;0.27;;;4.80;99.90;;;;;;5075272;28;21027;-79
2022/04/05 04:12:31;;;;;;;0.50;0.30;;;4.90;99.90;;;;;;5074848;28;20429;-79
2022/04/05 04:14:58;;;;;;;0.40;0.40;;;4.90;99.90;;;;;;5074647;28;20537;-79
2022/04/05 04:17:26;;;;;;;0.83;0.40;;;4.90;99.90;;;;;;5075015;28;20460;-79
2022/04/05 04:19:53;;;;;;;1.30;1.20;;;4.90;99.90;;;;;;5074458;28;20469;-79
2022/04/05 04:22:20;;;;;;;0.30;0.30;;;4.90;99.90;;;;;;5074030;28;20831;-79
2022/04/05 04:24:47;;;;;;;0.30;0.30;;;5.00;99.90;;;;;;5074443;28;20449;-79
2022/04/05 04:27:14;;;;;;;0.37;0.37;;;5.00;99.90;;;;;;5074067;28;20455;-79
2022/04/05 04:29:41;;;;;;;0.30;0.20;;;5.00;99.90;;;;;;5073871;28;21000;-79
2022/04/05 04:32:08;;;;;;;0.50;0.27;;;4.80;99.90;;;;;;5074279;28;20451;-79
2022/04/05 04:34:36;;;;;;;0.30;0.30;;;4.70;99.90;;;;;;5073951;28;20460;-79
2022/04/05 04:37:04;;;;;;;0.60;0.30;;;4.60;99.90;;;;;;5074183;28;20449;-79
2022/04/05 04:39:31;;;;;;;0.30;0.20;;;4.60;99.90;;;;;;5073820;28;20968;-80
2022/04/05 04:41:58;;;;;;;0.43;0.43;;;4.50;99.90;;;;;;5073373;28;20457;-80
2022/04/05 04:44:25;;;;;;;4.10;0.70;;;4.50;99.90;;;;;;5074061;28;20449;-80
2022/04/05 04:46:52;;;;;;;0.30;0.30;;;4.50;99.90;;;;;;5073962;28;20488;-80
2022/04/05 04:49:18;;;;;;;1.83;0.40;;;4.50;99.90;;;;;;5073861;28;20476;-80
2022/04/05 04:51:47;;;;;;;0.63;0.50;;;4.50;99.90;;;;;;5073904;28;20449;-80
2022/04/05 04:54:13;;;;;;;0.30;0.30;;;4.40;99.90;;;;;;5073872;28;20453;-80
2022/04/05 04:56:40;;;;;;;1.50;1.50;;;4.40;99.90;;;;;;5073632;28;20444;-80
2022/04/05 04:59:07;;;;;;;0.30;0.30;;;4.40;99.90;;;;;;5073741;28;20448;-80
2022/04/05 05:01:34;;;;;;;0.40;0.30;;;4.30;99.90;;;;;;5074058;28;20467;-80
2022/04/05 05:04:01;;;;;;;0.30;0.30;;;4.30;99.90;;;;;;5073397;28;20441;-80
2022/04/05 05:06:28;;;;;;;0.30;0.30;;;4.30;99.90;;;;;;5073704;28;20455;-80
2022/04/05 05:08:56;;;;;;;0.30;0.30;;;4.30;99.90;;;;;;5073275;28;21026;-80
2022/04/05 05:11:23;;;;;;;0.40;0.40;;;4.40;99.90;;;;;;5073579;28;20468;-80
2022/04/05 05:13:49;;;;;;;0.40;0.40;;;4.40;99.90;;;;;;5073577;28;20449;-80
2022/04/05 05:16:16;;;;;;;0.63;0.63;;;4.40;99.90;;;;;;5073540;28;20472;-80
2022/04/05 05:18:43;;;;;;;0.40;0.40;;;4.40;99.90;;;;;;5073252;28;20448;-80
2022/04/05 05:21:10;;;;;;;0.30;0.30;;;4.50;99.90;;;;;;5073175;28;20449;-80
2022/04/05 05:23:37;;;;;;;0.30;0.30;;;4.60;99.90;;;;;;5073109;28;20484;-80
2022/04/05 05:26:05;;;;;;;0.60;0.60;;;4.60;99.90;;;;;;5073676;28;20456;-80
2022/04/05 05:28:32;;;;;;;1.13;1.13;;;4.70;99.90;;;;;;5073354;28;20497;-80
2022/04/05 05:30:59;;;;;;;0.30;0.30;;;4.70;99.90;;;;;;5073370;28;20464;-80
2022/04/05 05:33:25;;;;;;;0.30;0.20;;;4.60;99.90;;;;;;5073906;28;20440;-80
2022/04/05 05:35:52;;;;;;;0.30;0.20;;;4.70;99.90;;;;;;5073054;28;20947;-80
2022/04/05 05:38:19;;;;;;;0.30;0.30;;;4.70;99.90;;;;;;5073310;28;20816;-81
2022/04/05 05:40:46;;;;;;;0.40;0.30;;;4.70;99.90;;;;;;5072945;28;20833;-80
2022/04/05 05:43:14;;;;;;;0.37;0.37;;;4.70;99.90;;;;;;5072952;28;20955;-80
2022/04/05 05:45:41;;;;;;;1.53;0.80;;;4.80;99.90;;;;;;5072962;28;20452;-80
2022/04/05 05:48:08;;;;;;;0.30;0.30;;;4.90;99.90;;;;;;5072991;28;20924;-80
2022/04/05 05:50:36;;;;;;;0.60;0.40;;;4.90;99.90;;;;;;5073065;28;20493;-80
2022/04/05 05:53:03;;;;;;;0.30;0.30;;;4.90;99.90;;;;;;5075485;28;20454;-80
2022/04/05 05:55:30;;;;;;;0.63;0.63;;;4.80;99.90;;;;;;5077290;28;20838;-80
2022/04/05 05:57:56;;;;;;;0.30;0.30;;;4.90;99.90;;;;;;5077233;28;20455;-80
2022/04/05 06:00:25;;;;;;;0.30;0.30;;;4.80;99.90;;;;;;5076896;28;20994;-80
2022/04/05 06:02:54;;;;;;;0.50;0.40;;;4.70;99.90;;;;;;5077361;28;20453;-83
2022/04/05 06:05:21;;;;;;;0.30;0.30;;;4.60;99.90;;;;;;5077252;28;20455;-84
2022/04/05 06:07:48;;;;;;;0.87;0.87;;;4.60;99.90;;;;;;5077189;28;20449;-83
2022/04/05 06:10:15;;;;;;;0.30;0.30;;;4.60;99.90;;;;;;5076785;28;20484;-80
2022/04/05 06:12:43;;;;;;;1.30;1.27;;;4.60;99.90;;;;;;5076806;28;20959;-80
2022/04/05 06:15:12;;;;;;;0.30;0.30;;;4.60;99.90;;;;;;5076708;28;20951;-80
2022/04/05 06:17:42;;;;;;;0.60;0.50;;;4.60;99.90;;;;;;5077023;28;20429;-80
2022/04/05 06:20:12;;;;;;;0.30;0.30;;;4.60;99.90;;;;;;5084265;28;20464;-84
2022/04/05 06:22:43;;;;;;;0.30;0.30;;;4.60;99.90;;;;;;5077814;28;20485;-83
2022/04/05 06:25:10;;;;;;;0.30;0.30;;;4.60;99.90;;;;;;5076564;28;20456;-83
2022/04/05 06:27:38;;;;;;;0.40;0.40;;;4.70;99.90;;;;;;5076858;28;20445;-83
2022/04/05 06:30:07;;;;;;;0.50;0.50;;;4.60;99.90;;;;;;5076106;28;20546;-80
2022/04/05 06:32:34;;;;;;;0.87;0.60;;;4.70;99.90;;;;;;5076722;28;20456;-80
2022/04/05 06:35:02;;;;;;;0.30;0.30;;;4.80;99.90;;;;;;5076722;28;20449;-83
2022/04/05 06:37:29;;;;;;;0.30;0.20;;;4.80;99.90;;;;;;5077598;28;20452;-83
2022/04/05 06:39:56;;;;;;;0.30;0.30;;;4.80;99.90;;;;;;5079345;28;20461;-83
2022/04/05 06:42:25;;;;;;;0.30;0.20;;;4.80;99.90;;;;;;5076574;28;20445;-83
2022/04/05 06:44:52;;;;;;;0.30;0.30;;;4.80;99.90;;;;;;5076419;28;20453;-83
2022/04/05 06:47:19;;;;;;;0.50;0.40;;;4.80;99.90;;;;;;5076408;28;20448;-83
2022/04/05 06:49:45;;;;;;;0.40;0.40;;;4.90;99.90;;;;;;5075876;28;20476;-83
2022/04/05 06:52:14;;;;;;;0.57;0.57;;;4.90;99.90;;;;;;5076237;28;20452;-83
2022/04/05 06:54:40;;;;;;;0.30;0.30;;;5.00;99.90;;;;;;5076077;28;20432;-80
2022/04/05 06:57:07;;;;;;;0.50;0.43;;;5.00;99.90;;;;;;5076275;28;20460;-83
2022/04/05 06:59:34;;;;;;;0.30;0.30;;;5.00;99.90;;;;;;5076090;28;20472;-80
2022/04/05 07:02:00;;;;;;;0.40;0.30;;;5.00;99.90;;;;;;5076050;28;20459;-80
2022/04/05 07:04:29;;;;;;;2.10;0.43;;;5.20;99.90;;;;;;5075471;28;20460;-80
2022/04/05 07:06:56;;;;;;;0.30;0.30;;;5.30;99.90;;;;;;5075681;28;20441;-80
2022/04/05 07:09:24;;;;;;;0.50;0.40;;;5.30;99.90;;;;;;5075802;28;20484;-80
2022/04/05 07:11:51;;;;;;;0.30;0.30;;;5.40;99.90;;;;;;5075943;28;20457;-80
2022/04/05 07:14:18;;;;;;;0.30;0.20;;;5.50;99.90;;;;;;5075623;28;20440;-80
2022/04/05 07:16:45;;;;;;;0.40;0.30;;;5.60;99.90;;;;;;5075785;28;20550;-80
2022/04/05 07:19:12;;;;;;;0.30;0.30;;;5.70;99.90;;;;;;5075715;28;20436;-80
2022/04/05 07:21:38;;;;;;;0.30;0.30;;;5.80;99.90;;;;;;5075368;28;20825;-79
2022/04/05 07:24:06;;;;;;;0.33;0.30;;;5.90;99.90;;;;;;5075153;28;20496;-79
2022/04/05 07:26:34;;;;;;;0.30;0.20;;;5.90;99.90;;;;;;5075360;28;20451;-79
2022/04/05 07:29:01;;;;;;;0.40;0.30;;;6.10;99.90;;;;;;5075371;28;20444;-79
2022/04/05 07:31:28;;;;;;;0.33;0.30;;;6.10;99.90;;;;;;5075525;28;20457;-79
2022/04/05 07:33:54;;;;;;;0.47;0.47;;;6.10;99.90;;;;;;5075527;28;20425;-79
2022/04/05 07:36:21;;;;;;;0.30;0.30;;;6.20;99.90;;;;;;5075534;28;20425;-79
2022/04/05 07:38:48;;;;;;;0.30;0.30;;;6.20;99.90;;;;;;5075054;28;20797;-79
2022/04/05 07:41:15;;;;;;;0.80;0.63;;;6.30;99.90;;;;;;5074930;28;20897;-79
2022/04/05 07:43:43;;;;;;;0.30;0.20;;;6.30;99.90;;;;;;5075067;28;20455;-83
2022/04/05 07:46:11;;;;;;;0.93;0.40;;;6.40;99.90;;;;;;5075504;28;20452;-84
2022/04/05 07:48:39;;;;;;;0.30;0.30;;;6.40;99.90;;;;;;5075244;28;20444;-83
2022/04/05 07:51:06;;;;;;;0.30;0.30;;;6.50;99.90;;;;;;5074612;28;20926;-83
2022/04/05 07:53:33;;;;;;;0.40;0.37;;;6.50;99.90;;;;;;5075377;28;20456;-83
2022/04/05 07:56:00;;;;;;;0.40;0.30;;;6.60;99.90;;;;;;5075115;28;20456;-84
2022/04/05 07:58:27;;;;;;;0.53;0.50;;;6.70;99.90;;;;;;5075054;28;20449;-83
2022/04/05 08:00:56;;;;;;;0.40;0.30;;;6.70;99.90;;;;;;5074846;28;20469;-83
2022/04/05 08:03:23;;;;;;;0.57;0.57;;;6.80;99.90;;;;;;5074565;28;21024;-83
2022/04/05 08:05:50;;;;;;;0.30;0.30;;;6.80;99.90;;;;;;5074976;28;20536;-83
2022/04/05 08:08:16;;;;;;;0.50;0.50;;;6.80;99.90;;;;;;5074470;28;20440;-83
2022/04/05 08:10:43;;;;;;;0.70;0.50;;;6.80;99.90;;;;;;5074304;28;20491;-84
2022/04/05 08:13:10;;;;;;;0.30;0.30;;;6.80;99.90;;;;;;5074701;28;20441;-84
2022/04/05 08:15:39;;;;;;;0.40;0.40;;;6.90;99.90;;;;;;5074180;28;20433;-84
2022/04/05 08:18:08;;;;;;;0.30;0.30;;;6.90;99.90;;;;;;5074610;28;20449;-81
2022/04/05 08:20:36;;;;;;;0.40;0.40;;;6.90;99.90;;;;;;5074578;28;20465;-81
2022/04/05 08:23:03;;;;;;;0.40;0.40;;;7.00;99.90;;;;;;5074149;28;21003;-81
2022/04/05 08:25:30;;;;;;;0.30;0.27;;;7.10;99.90;;;;;;5074385;28;20449;-81
2022/04/05 08:27:58;;;;;;;0.30;0.20;;;7.30;99.90;;;;;;5074582;28;20448;-83
2022/04/05 08:30:25;;;;;;;1.17;1.17;;;7.40;99.90;;;;;;5073892;28;21036;-82
2022/04/05 08:32:52;;;;;;;0.43;0.43;;;7.40;99.90;;;;;;5074134;28;20433;-83
2022/04/05 08:35:21;;;;;;;0.60;0.50;;;7.50;99.90;;;;;;5073969;28;20940;-82
2022/04/05 08:37:50;;;;;;;0.83;0.40;;;7.60;99.90;;;;;;5074030;28;20433;-82
2022/04/05 08:40:19;;;;;;;1.13;0.30;;;7.50;99.90;;;;;;5074051;28;20469;-82
2022/04/05 08:42:48;;;;;;;1.23;0.43;;;7.60;99.90;;;;;;5074135;28;20451;-83
2022/04/05 08:45:16;;;;;;;0.50;0.40;;;7.60;99.90;;;;;;5074095;28;20437;-83
2022/04/05 08:47:47;;;;;;;0.40;0.37;;;7.50;99.90;;;;;;5073792;28;20867;-82
2022/04/05 08:50:16;;;;;;;0.40;0.33;;;7.50;99.90;;;;;;5073919;28;20476;-82
2022/04/05 08:52:44;;;;;;;0.60;0.40;;;7.40;99.90;;;;;;5074034;28;20815;-82
2022/04/05 08:55:11;;;;;;;0.90;0.70;;;7.50;99.90;;;;;;5073916;28;20451;-82
2022/04/05 08:57:38;;;;;;;0.30;0.30;;;7.70;99.90;;;;;;5073938;28;20449;-82
2022/04/05 09:00:08;;;;;;;0.80;0.40;;;7.80;99.90;;;;;;5073860;28;20460;-82
2022/04/05 09:02:35;;;;;;;0.83;0.50;;;7.80;99.90;;;;;;5073918;28;20456;-82
2022/04/05 09:05:02;;;;;;;0.30;0.30;;;8.00;99.90;;;;;;5081650;28;20441;-81
2022/04/05 09:07:31;;;;;;;0.63;0.53;;;8.30;99.90;;;;;;5083299;28;20451;-82
2022/04/05 09:10:14;;;;;;;1.23;0.87;;;8.30;99.90;;;;;;5073594;28;20489;-82
2022/04/05 09:12:42;;;;;;;0.40;0.30;;;8.20;99.90;;;;;;5073351;28;20964;-82
2022/04/05 09:15:11;;;;;;;0.40;0.33;;;8.30;99.90;;;;;;5073754;28;20449;-84
2022/04/05 09:17:42;;;;;;;2.23;0.50;;;8.30;99.90;;;;;;5073832;28;20474;-82
2022/04/05 09:20:10;;;;;;;1.43;0.33;;;8.30;99.90;;;;;;5073489;28;20461;-82
2022/04/05 09:22:37;;;;;;;0.60;0.40;;;8.40;99.90;;;;;;5073267;28;20842;-82
2022/04/05 09:25:05;;;;;;;0.40;0.30;;;8.50;99.90;;;;;;5073162;28;20986;-82
2022/04/05 09:27:45;;;;;;;0.87;0.70;;;8.50;99.90;;;;;;5073011;28;20441;-83
2022/04/05 09:30:13;;;;;;;0.30;0.30;;;8.40;99.90;;;;;;5073239;28;20484;-83
2022/04/05 09:32:42;;;;;;;0.50;0.50;;;8.40;99.90;;;;;;5074033;28;20782;-83
2022/04/05 09:35:10;;;;;;;0.30;0.30;;;8.40;99.90;;;;;;5073358;28;20437;-83
2022/04/05 09:37:38;;;;;;;0.50;0.50;;;8.30;99.90;;;;;;5073142;28;20452;-83
2022/04/05 09:40:22;;;;;;;0.30;0.30;;;8.20;99.90;;;;;;5073382;28;20553;-83
2022/04/05 09:43:02;;;;;;;0.40;0.37;;;8.10;99.90;;;;;;5073318;28;20436;-83
2022/04/05 09:45:51;;;;;;;0.80;0.57;;;8.00;99.90;;;;;;5073659;28;20436;-82
2022/04/05 09:48:20;;;;;;;0.30;0.30;;;8.00;99.90;;;;;;5073271;28;20410;-83
2022/04/05 09:51:01;;;;;;;0.30;0.30;;;8.00;99.90;;;;;;5073172;28;20504;-83
2022/04/05 09:53:28;;;;;;;0.30;0.30;;;8.10;99.90;;;;;;5073239;28;20502;-82
2022/04/05 09:56:05;;;;;;;0.40;0.40;;;8.30;99.90;;;;;;5073104;28;20837;-81
2022/04/05 09:58:34;;;;;;;0.30;0.30;;;8.50;99.90;;;;;;5073746;28;20444;-81
2022/04/05 10:01:10;;;;;;;0.40;0.40;;;8.70;99.90;;;;;;5073018;28;20479;-81
2022/04/05 10:03:39;;;;;;;0.30;0.27;;;8.80;99.90;;;;;;5072735;28;20482;-81
2022/04/05 10:06:06;;;;;;;0.50;0.50;;;8.90;99.90;;;;;;5073214;28;20440;-81
2022/04/05 10:08:35;;;;;;;0.80;0.60;;;9.10;99.90;;;;;;5073193;28;20440;-81
2022/04/05 10:11:02;;;;;;;0.50;0.40;;;9.20;99.90;;;;;;5072492;28;20835;-81
2022/04/05 10:13:30;;;;;;;0.40;0.40;;;9.20;99.90;;;;;;5072763;28;20913;-78
2022/04/05 10:16:00;;;;;;;1.33;0.40;;;9.30;99.90;;;;;;5072758;28;20436;-83
2022/04/05 10:18:33;;;;;;;0.40;0.40;;;9.40;99.90;;;;;;5073063;28;20803;-78
2022/04/05 10:21:02;;;;;;;0.30;0.30;;;9.40;99.90;;;;;;5072913;28;20492;-83
2022/04/05 10:23:29;;;;;;;0.40;0.30;;;9.40;99.90;;;;;;5072725;28;20550;-79
2022/04/05 10:25:57;;;;;;;0.80;0.80;;;9.40;99.90;;;;;;5072887;28;20437;-78
2022/04/05 10:28:42;;;;;;;1.53;0.50;;;9.30;99.90;;;;;;5072568;28;20582;-80
2022/04/05 10:31:17;;;;;;;0.30;0.30;;;9.30;99.90;;;;;;5072793;28;20527;-79
2022/04/05 10:33:59;;;;;;;0.40;0.30;;;9.10;99.90;;;;;;5072934;28;20433;-80
2022/04/05 10:36:26;;;;;;;0.50;0.30;;;8.90;99.90;;;;;;5072965;28;20971;-79
2022/04/05 10:39:17;;;;;;;0.30;0.30;;;8.80;99.90;;;;;;5074865;28;20502;-80
2022/04/05 10:41:46;;;;;;;0.30;0.27;;;8.70;99.90;;;;;;5061529;28;20460;-78
2022/04/05 10:44:24;;;;;;;0.40;0.40;;;8.50;99.90;;;;;;5076550;28;20428;-78
2022/04/05 10:46:58;;;;;;;0.30;0.20;;;8.40;99.90;;;;;;5076383;28;20429;-78
2022/04/05 10:49:41;;;;;;;0.40;0.40;;;8.30;99.90;;;;;;5075984;28;20471;-78
2022/04/05 10:52:12;;;;;;;0.40;0.30;;;8.30;99.90;;;;;;5076509;28;20831;-81
2022/04/05 10:54:41;;;;;;;0.50;0.50;;;8.30;99.90;;;;;;5076247;28;20448;-82
2022/04/05 10:57:29;;;;;;;0.30;0.30;;;8.40;99.90;;;;;;5076131;28;20796;-82
2022/04/05 10:59:59;;;;;;;0.57;0.30;;;8.50;99.90;;;;;;5076157;28;20778;-80
2022/04/05 11:02:38;;;;;;;0.67;0.37;;;8.60;99.90;;;;;;5076259;28;20445;-75
2022/04/05 11:05:32;;;;;;;0.30;0.30;;;8.80;99.90;;;;;;5076173;28;20892;-80
2022/04/05 11:08:04;;;;;;;0.30;0.30;;;9.00;99.90;;;;;;5075959;28;20449;-80
2022/04/05 11:10:44;;;;;;;0.30;0.30;;;9.10;99.90;;;;;;5075823;28;20485;-80
2022/04/05 11:13:13;;;;;;;0.40;0.30;;;9.00;99.90;;;;;;5075780;28;20920;-80
2022/04/05 11:15:41;;;;;;;0.30;0.30;;;9.10;99.90;;;;;;5075814;28;20429;-80
2022/04/05 11:18:10;;;;;;;0.30;0.30;;;9.20;99.90;;;;;;5075451;28;20502;-81
2022/04/05 11:20:41;;;;;;;0.30;0.30;;;9.30;99.90;;;;;;5075741;28;20949;-81
2022/04/05 11:23:08;;;;;;;0.30;0.30;;;9.20;99.90;;;;;;5075684;28;20905;-82
2022/04/05 11:25:36;;;;;;;1.43;0.30;;;9.30;99.90;;;;;;5075392;28;20448;-81
2022/04/05 11:28:14;;;;;;;0.30;0.20;;;9.40;99.90;;;;;;5079683;28;20438;-82
2022/04/05 11:30:52;;;;;;;0.30;0.30;;;9.40;99.90;;;;;;5078415;28;20488;-82
2022/04/05 11:33:45;;;;;;;0.30;0.30;;;9.40;99.90;;;;;;5075337;28;20434;-82
2022/04/05 11:36:14;;;;;;;0.30;0.30;;;9.30;99.90;;;;;;5075552;28;20457;-78
2022/04/05 11:38:43;;;;;;;0.50;0.50;;;9.20;99.90;;;;;;5075459;28;20425;-78
2022/04/05 11:41:20;;;;;;;0.30;0.30;;;9.10;99.90;;;;;;5075393;28;20467;-81
2022/04/05 11:43:50;;;;;;;0.63;0.30;;;9.20;99.90;;;;;;5075645;28;20405;-82
2022/04/05 11:46:23;;;;;;;0.40;0.33;;;9.20;99.90;;;;;;5075346;28;20879;-81
2022/04/05 11:48:52;;;;;;;0.40;0.40;;;9.20;99.90;;;;;;5074966;28;20429;-81
2022/04/05 11:51:28;;;;;;;0.50;0.50;;;9.10;99.90;;;;;;5074456;28;20499;-82
2022/04/05 11:54:04;;;;;;;0.63;0.50;;;9.30;99.90;;;;;;5074817;28;20934;-82
2022/04/05 11:56:31;;;;;;;0.30;0.30;;;9.40;99.90;;;;;;5075405;28;20839;-82
2022/04/05 11:58:59;;;;;;;0.40;0.30;;;9.50;99.90;;;;;;5075098;28;20441;-82
2022/04/05 12:01:28;;;;;;;0.30;0.20;;;9.50;99.90;;;;;;5074930;28;20472;-82
2022/04/05 12:03:58;;;;;;;0.30;0.30;;;9.70;99.90;;;;;;5074825;28;20883;-83
2022/04/05 12:06:28;;;;;;;0.67;0.40;;;9.90;99.90;;;;;;5075179;28;20437;-82
2022/04/05 12:08:58;;;;;;;0.40;0.30;;;10.00;99.90;;;;;;5074904;28;20442;-82
2022/04/05 12:11:29;;;;;;;0.30;0.30;;;10.20;99.90;;;;;;5074661;28;20488;-83
2022/04/05 12:13:58;;;;;;;0.53;0.40;;;10.40;99.90;;;;;;5074511;28;20924;-85
2022/04/05 12:16:27;;;;;;;0.40;0.30;;;10.50;99.90;;;;;;5074664;28;20441;-83
2022/04/05 12:18:57;;;;;;;0.40;0.40;;;10.60;99.90;;;;;;5074681;28;20440;-83
2022/04/05 12:21:25;;;;;;;0.40;0.37;;;10.50;99.90;;;;;;5074423;28;20976;-80
2022/04/05 12:23:54;;;;;;;0.40;0.33;;;10.50;99.90;;;;;;5074305;28;20484;-80
2022/04/05 12:36:46;;;;;;;0.93;0.30;;;10.60;99.90;;;;;;5830094;22;20264;-85
2022/04/05 12:39:18;;;;;;;0.40;0.40;;;10.60;99.90;;;;;;5034911;28;20434;-85
2022/04/05 12:41:47;;;;;;;6.03;0.60;;;10.50;99.90;;;;;;5034506;28;20902;-81
2022/04/05 12:44:15;;;;;;;0.40;0.30;;;10.50;99.90;;;;;;5034159;28;20431;-82
2022/04/05 12:46:44;;;;;;;0.40;0.40;;;10.60;99.90;;;;;;5034033;28;20789;-82
2022/04/05 12:49:16;;;;;;;0.30;0.30;;;10.60;99.90;;;;;;5034016;28;20435;-81
2022/04/05 12:51:44;;;;;;;0.30;0.30;;;10.50;99.90;;;;;;5033912;28;20577;-81
2022/04/05 12:54:25;;;;;;;0.40;0.30;;;10.50;99.90;;;;;;5034053;28;20419;-82
2022/04/05 12:56:52;;;;;;;1.33;0.40;;;10.60;99.90;;;;;;5033992;28;20412;-82
2022/04/05 12:59:26;;;;;;;0.40;0.30;;;10.60;99.90;;;;;;5033841;28;20446;-81
2022/04/05 13:01:56;;;;;;;0.40;0.40;;;10.70;99.90;;;;;;5033089;28;20969;-81
2022/04/05 13:04:23;;;;;;;0.40;0.40;;;10.80;99.90;;;;;;5034109;28;20435;-82
2022/04/05 13:06:55;;;;;;;0.47;0.37;;;10.90;99.90;;;;;;5033812;28;20451;-81
2022/04/05 13:09:29;;;;;;;0.30;0.30;;;11.00;99.90;;;;;;5036895;28;20490;-81
2022/04/05 13:12:10;;;;;;;0.30;0.30;;;10.80;99.90;;;;;;5034428;28;20812;-81
2022/04/05 13:14:38;;;;;;;0.40;0.30;;;10.70;99.90;;;;;;5033400;28;20785;-82